Bridgehampton, New York
Current Conditions -  °F | °C
As of 11:53 AM on Monday 24 Nov 2014 (Local Time) from KFOK Reporting Station
Haze Haze  
Wind Chill: 16°   Ceiling: 200
Heat Index: 16°   Visibility: 1.2mi
Dew Point: 16°   Wind: 17mph
Humidity: 97%   Direction: 210°SSW
Pressure: 29.71"   Gusts: 26mph
Location:  40.94°N, 72.3°W
Report Text: KFOK 241653Z 21015G23KT 1 1/4SM BR OVC002 16/16 A2971 RMK AO2 RAB33E52 SLP059 P0001 T01610156
Loading
Personal Weather Stations






























Interactive Weather Map New forecast layout! Learn more

10-Day Weather Forecast

Advertisements
Track Severe Weather on mobile